Time;durP1;ratioP1;P1;durP2;ratioP2;P2;SDS_P1;SDS_P2;PMS_P1;PMS_P2;Temp;Humidity;BMP_temperature;BMP_pressure;BME280_temperature;BME280_humidity;BME280_pressure;Samples;Min_cycle;Max_cycle;Signal;HPM_P1;HPM_P2
2023/07/16 00:01:37;;;;;;;;;;;;;;;23.67;52.32;101001.97;5076012;28;1177;-18
2023/07/16 00:04:02;;;;;;;;;;;;;;;25.05;49.04;101002.44;5075425;28;1096;-18
2023/07/16 00:06:28;;;;;;;;;;;;;;;22.96;51.56;100996.34;5075927;28;1964;-18
2023/07/16 00:08:53;;;;;;;;;;;;;;;22.48;57.19;100996.34;5076057;28;1127;-18
2023/07/16 00:11:19;;;;;;;;;;;;;;;25.10;48.33;100998.41;5075502;28;1043;-18
2023/07/16 00:13:47;;;;;;;;;;;;;;;24.62;46.46;100993.47;5075290;28;1066;-18
2023/07/16 00:16:13;;;;;;;;;;;;;;;22.26;53.26;100991.19;5075713;28;1115;-18
2023/07/16 00:18:39;;;;;;;;;;;;;;;24.41;49.54;100992.00;5076153;28;1075;-18
2023/07/16 00:21:04;;;;;;;;;;;;;;;25.37;49.62;100991.94;5071475;28;2341;-18
2023/07/16 00:23:29;;;;;;;;;;;;;;;22.98;51.34;100983.63;5062246;28;860;-18
2023/07/16 00:25:55;;;;;;;;;;;;;;;23.06;54.55;100993.59;5075329;28;1910;-18
2023/07/16 00:28:20;;;;;;;;;;;;;;;25.19;47.82;100989.38;5062190;28;953;-18
2023/07/16 00:30:46;;;;;;;;;;;;;;;23.88;48.20;100982.03;5075714;28;1035;-18
2023/07/16 00:33:11;;;;;;;;;;;;;;;22.26;52.90;100980.47;5075474;28;1193;-18
2023/07/16 00:35:37;;;;;;;;;;;;;;;24.25;49.88;100979.31;5057023;28;1299;-18
2023/07/16 00:38:03;;;;;;;;;;;;;;;25.28;49.57;100977.59;5075439;28;1031;-18
2023/07/16 00:40:28;;;;;;;;;;;;;;;22.97;50.85;100972.03;5075137;28;1047;-18
2023/07/16 00:42:54;;;;;;;;;;;;;;;22.69;54.66;100972.03;5057287;28;1147;-18
2023/07/16 00:45:19;;;;;;;;;;;;;;;25.26;46.13;100976.06;5057360;28;1969;-18
2023/07/16 00:47:45;;;;;;;;;;;;;;;25.58;45.97;100971.75;5056934;28;1095;-18
2023/07/16 00:50:11;;;;;;;;;;;;;;;25.88;47.22;100977.50;5075334;28;1114;-18
2023/07/16 00:52:37;;;;;;;;;;;;;;;22.80;50.46;100967.47;5063385;28;2347;-18
2023/07/16 00:55:02;;;;;;;;;;;;;;;22.64;54.43;100968.94;5059639;28;1051;-18
2023/07/16 00:57:28;;;;;;;;;;;;;;;25.35;45.09;100967.00;5078654;28;1023;-18
2023/07/16 00:59:53;;;;;;;;;;;;;;;24.82;43.69;100964.47;5078669;28;1019;-18
2023/07/16 01:02:19;;;;;;;;;;;;;;;22.10;53.21;100962.31;5078749;28;956;-18
2023/07/16 01:04:44;;;;;;;;;;;;;;;24.60;46.83;100957.81;5078836;28;1969;-18
2023/07/16 01:07:11;;;;;;;;;;;;;;;25.45;46.88;100966.84;5060324;28;1234;-18
2023/07/16 01:09:36;;;;;;;;;;;;;;;22.50;49.92;100963.03;5060639;28;1012;-18
2023/07/16 01:12:02;;;;;;;;;;;;;;;23.55;49.51;100957.56;5060158;28;1094;-18
2023/07/16 01:14:30;;;;;;;;;;;;;;;25.42;46.45;100956.41;5044295;28;1327;-18
2023/07/16 01:16:58;;;;;;;;;;;;;;;23.11;47.99;100946.56;5060435;28;1250;-18
2023/07/16 01:19:25;;;;;;;;;;;;;;;22.18;54.92;100956.22;5078921;28;1131;-18
2023/07/16 01:21:59;;;;;;;;;;;;;;;25.12;44.63;100950.63;5078465;28;2257;-18
2023/07/16 01:24:34;;;;;;;;;;;;;;;25.73;44.41;100950.41;5077704;28;1903;-18
2023/07/16 01:27:02;;;;;;;;;;;;;;;25.84;45.19;100957.28;5078230;28;1066;-18
2023/07/16 01:29:28;;;;;;;;;;;;;;;22.79;49.52;100953.22;5078309;28;1096;-18
2023/07/16 01:31:54;;;;;;;;;;;;;;;22.90;52.40;100946.81;5078400;28;1122;-18
2023/07/16 01:34:20;;;;;;;;;;;;;;;25.43;44.26;100950.00;5077682;28;1214;-18
2023/07/16 01:36:45;;;;;;;;;;;;;;;25.60;44.61;100939.25;5059510;28;944;-18
2023/07/16 01:39:11;;;;;;;;;;;;;;;25.86;45.81;100947.19;5059817;28;1122;-18
2023/07/16 01:41:36;;;;;;;;;;;;;;;22.99;48.72;100931.66;5059848;28;1386;-18
2023/07/16 01:44:02;;;;;;;;;;;;;;;23.02;51.49;100930.53;5060268;28;1519;-18
2023/07/16 01:46:29;;;;;;;;;;;;;;;25.41;44.41;100939.41;5067883;28;1898;-18
2023/07/16 01:48:55;;;;;;;;;;;;;;;25.77;44.21;100943.69;5039936;28;1207;-18
2023/07/16 01:51:21;;;;;;;;;;;;;;;25.91;45.70;100933.19;5066701;28;2416;-18
2023/07/16 01:53:46;;;;;;;;;;;;;;;22.99;48.73;100928.97;5077738;28;1059;-18
2023/07/16 01:56:12;;;;;;;;;;;;;;;23.36;50.27;100932.53;5077775;28;1050;-18
2023/07/16 01:58:38;;;;;;;;;;;;;;;25.48;44.46;100939.59;5059842;28;1283;-18
2023/07/16 02:01:03;;;;;;;;;;;;;;;25.71;44.72;100938.94;5059360;28;1034;-18
2023/07/16 02:03:29;;;;;;;;;;;;;;;25.82;46.11;100943.16;5077677;28;1066;-18
2023/07/16 02:05:54;;;;;;;;;;;;;;;22.81;49.14;100928.94;5077468;28;1914;-18
2023/07/16 02:08:20;;;;;;;;;;;;;;;23.47;49.88;100936.88;5059282;28;1143;-18
2023/07/16 02:10:47;;;;;;;;;;;;;;;25.60;44.21;100934.72;5059864;28;1059;-18
2023/07/16 02:13:12;;;;;;;;;;;;;;;25.77;43.87;100942.81;5076950;28;1095;-18
2023/07/16 02:15:38;;;;;;;;;;;;;;;25.89;45.50;100940.63;5059509;28;1194;-18
2023/07/16 02:18:04;;;;;;;;;;;;;;;22.84;48.81;100936.66;5077303;28;1103;-18
2023/07/16 02:20:29;;;;;;;;;;;;;;;23.36;50.13;100937.91;5077185;28;1079;-18
2023/07/16 02:22:55;;;;;;;;;;;;;;;25.60;44.11;100945.50;5057953;28;2490;-18
2023/07/16 02:25:20;;;;;;;;;;;;;;;25.66;44.19;100946.69;5057424;28;1906;-18
2023/07/16 02:27:47;;;;;;;;;;;;;;;25.82;45.31;100948.56;5072450;28;1020;-18
2023/07/16 02:30:13;;;;;;;;;;;;;;;22.85;49.32;100938.38;5077135;28;1082;-18
2023/07/16 02:32:41;;;;;;;;;;;;;;;23.29;50.72;100948.41;5059150;28;1523;-18
2023/07/16 02:35:07;;;;;;;;;;;;;;;25.51;43.80;100947.31;5059135;28;1011;-18
2023/07/16 02:37:32;;;;;;;;;;;;;;;23.56;47.32;100945.81;5076060;28;834;-18
2023/07/16 02:39:58;;;;;;;;;;;;;;;22.36;54.10;100934.88;5076457;28;1103;-18
2023/07/16 02:42:24;;;;;;;;;;;;;;;24.87;45.70;100943.31;5061629;28;1031;-18
2023/07/16 02:44:50;;;;;;;;;;;;;;;25.59;46.09;100954.56;5065153;28;1988;-18
2023/07/16 02:47:15;;;;;;;;;;;;;;;22.47;50.09;100944.56;5076674;28;1087;-18
2023/07/16 02:49:41;;;;;;;;;;;;;;;23.70;49.67;100944.44;5076462;28;883;-18
2023/07/16 02:52:07;;;;;;;;;;;;;;;25.41;47.33;100942.09;5047439;28;2266;-18
2023/07/16 02:54:32;;;;;;;;;;;;;;;23.30;50.52;100944.75;5058706;28;1123;-18
2023/07/16 02:56:58;;;;;;;;;;;;;;;22.31;57.22;100945.19;5058778;28;1169;-17
2023/07/16 02:59:23;;;;;;;;;;;;;;;24.96;47.03;100946.88;5058517;28;1143;-18
2023/07/16 03:01:49;;;;;;;;;;;;;;;22.68;53.28;100943.53;5056401;28;1114;-18
2023/07/16 03:04:15;;;;;;;;;;;;;;;22.18;59.43;100944.66;5047211;28;1959;-18
2023/07/16 03:06:40;;;;;;;;;;;;;;;24.99;48.80;100945.72;5076378;28;1154;-18
2023/07/16 03:09:06;;;;;;;;;;;;;;;22.81;54.40;100945.03;5076209;28;1007;-18
2023/07/16 03:11:31;;;;;;;;;;;;;;;22.13;57.45;100945.97;5076434;28;1074;-18
2023/07/16 03:13:58;;;;;;;;;;;;;;;24.32;53.20;100956.19;5076334;28;928;-18
2023/07/16 03:16:23;;;;;;;;;;;;;;;22.80;55.33;100959.44;5075695;28;1031;-18
2023/07/16 03:18:49;;;;;;;;;;;;;;;22.02;61.03;100959.50;5058209;28;1024;-18
2023/07/16 03:21:14;;;;;;;;;;;;;;;24.66;52.48;100958.03;5058089;28;2412;-18
2023/07/16 03:23:40;;;;;;;;;;;;;;;25.33;50.82;100962.78;5058365;28;1233;-18
2023/07/16 03:26:05;;;;;;;;;;;;;;;22.40;55.48;100951.53;5042987;28;1910;-18
2023/07/16 03:28:31;;;;;;;;;;;;;;;23.29;56.00;100959.13;5055013;28;1138;-18
2023/07/16 03:30:59;;;;;;;;;;;;;;;25.30;49.93;100951.34;5057332;28;1083;-18
2023/07/16 03:33:24;;;;;;;;;;;;;;;23.81;50.85;100948.72;5057863;28;1187;-18
2023/07/16 03:35:51;;;;;;;;;;;;;;;22.40;56.77;100954.19;5075816;28;1098;-18
2023/07/16 03:38:18;;;;;;;;;;;;;;;24.60;50.78;100955.13;5057344;28;1099;-18
2023/07/16 03:40:45;;;;;;;;;;;;;;;25.57;49.90;100956.59;5057391;28;1166;-18
2023/07/16 03:43:11;;;;;;;;;;;;;;;25.94;47.77;100962.53;5057976;28;1154;-18
2023/07/16 03:45:37;;;;;;;;;;;;;;;23.90;50.54;100958.56;5057552;28;1906;-17
2023/07/16 03:48:02;;;;;;;;;;;;;;;22.24;56.40;100961.00;5058131;28;1158;-17
2023/07/16 03:50:28;;;;;;;;;;;;;;;22.42;61.36;100962.91;5057281;28;1567;-17
2023/07/16 03:52:55;;;;;;;;;;;;;;;25.13;52.26;100963.94;5057564;28;2520;-17
2023/07/16 03:55:21;;;;;;;;;;;;;;;24.69;49.75;100957.69;5044237;28;1281;-18
2023/07/16 03:57:46;;;;;;;;;;;;;;;22.33;57.72;100961.97;5057680;28;1331;-19
2023/07/16 04:00:12;;;;;;;;;;;;;;;24.00;56.58;100961.13;5057619;28;1369;-19
2023/07/16 04:02:40;;;;;;;;;;;;;;;25.14;54.43;100967.47;5067819;28;1450;-19
2023/07/16 04:05:09;;;;;;;;;;;;;;;23.02;55.54;100963.56;5056893;28;1980;-19
2023/07/16 04:07:35;;;;;;;;;;;;;;;22.39;61.83;100969.44;5074793;28;979;-19
2023/07/16 04:10:00;;;;;;;;;;;;;;;24.91;53.08;100968.91;5075315;28;1126;-19
2023/07/16 04:12:26;;;;;;;;;;;;;;;23.05;55.20;100963.25;5075300;28;1084;-18
2023/07/16 04:14:54;;;;;;;;;;;;;;;22.56;61.43;100974.16;5062371;28;1063;-19
2023/07/16 04:17:20;;;;;;;;;;;;;;;24.97;53.16;100980.03;5066539;28;1106;-19
2023/07/16 04:19:45;;;;;;;;;;;;;;;22.56;56.35;100972.34;5071288;28;1212;-18
2023/07/16 04:22:11;;;;;;;;;;;;;;;22.68;59.97;100972.19;5075120;28;2085;-18
2023/07/16 04:24:36;;;;;;;;;;;;;;;25.40;50.74;100977.28;5061805;28;1913;-19
2023/07/16 04:27:02;;;;;;;;;;;;;;;24.06;51.75;100976.63;5066974;28;1221;-19
2023/07/16 04:29:27;;;;;;;;;;;;;;;22.25;56.76;100976.09;5072075;28;1192;-18
2023/07/16 04:31:53;;;;;;;;;;;;;;;23.09;57.85;100980.72;5068140;28;1143;-19
2023/07/16 04:34:18;;;;;;;;;;;;;;;25.67;49.73;100978.03;5075022;28;1335;-18
2023/07/16 04:36:44;;;;;;;;;;;;;;;23.76;52.36;100978.75;5077577;28;1021;-19
2023/07/16 04:39:09;;;;;;;;;;;;;;;22.13;57.35;100982.59;5078696;28;1079;-19
2023/07/16 04:41:35;;;;;;;;;;;;;;;24.14;54.74;100981.22;5071044;28;1099;-18
2023/07/16 04:44:00;;;;;;;;;;;;;;;25.52;52.36;100985.88;5072846;28;960;-18
2023/07/16 04:46:26;;;;;;;;;;;;;;;22.94;55.27;100982.25;5077414;28;1905;-18
2023/07/16 04:48:51;;;;;;;;;;;;;;;22.04;60.74;100988.84;5076672;28;1062;-18
2023/07/16 04:51:16;;;;;;;;;;;;;;;24.58;53.48;100987.56;5066459;28;1824;-18
2023/07/16 04:53:42;;;;;;;;;;;;;;;23.03;55.09;100980.50;5077924;28;1162;-18
2023/07/16 04:56:16;;;;;;;;;;;;;;;22.30;62.01;100991.75;5078837;28;1016;-18
2023/07/16 04:58:42;;;;;;;;;;;;;;;25.26;51.30;100998.44;5079106;28;1182;-18
2023/07/16 05:01:08;;;;;;;;;;;;;;;24.82;50.66;101004.84;5071992;28;1115;-19
2023/07/16 05:03:33;;;;;;;;;;;;;;;22.41;56.84;101000.59;5078451;28;1054;-18
2023/07/16 05:05:58;;;;;;;;;;;;;;;24.47;53.69;101002.16;5071053;28;1973;-19
2023/07/16 05:08:24;;;;;;;;;;;;;;;25.38;53.95;101008.91;5078584;28;1042;-19
2023/07/16 05:10:49;;;;;;;;;;;;;;;23.07;55.56;101008.72;5078339;28;1473;-18
2023/07/16 05:13:15;;;;;;;;;;;;;;;22.46;61.18;101001.00;5074368;28;1134;-18
2023/07/16 05:15:40;;;;;;;;;;;;;;;25.25;50.37;101012.09;5069640;28;1103;-18
2023/07/16 05:18:06;;;;;;;;;;;;;;;25.43;50.32;101017.34;5074192;28;1024;-19
2023/07/16 05:20:31;;;;;;;;;;;;;;;22.33;56.80;101004.00;5069842;28;1075;-18
2023/07/16 05:22:57;;;;;;;;;;;;;;;24.31;53.68;101008.25;5077897;28;1309;-18
2023/07/16 05:25:22;;;;;;;;;;;;;;;25.43;52.18;101014.66;5066851;28;1977;-18
2023/07/16 05:27:48;;;;;;;;;;;;;;;23.03;57.67;101010.84;5076488;28;1163;-19
2023/07/16 05:30:13;;;;;;;;;;;;;;;22.23;62.48;101014.75;5077630;28;1202;-18
2023/07/16 05:32:39;;;;;;;;;;;;;;;25.07;52.84;101007.66;5077371;28;1094;-18
2023/07/16 05:35:05;;;;;;;;;;;;;;;22.67;57.69;101014.22;5077818;28;992;-18
2023/07/16 05:37:30;;;;;;;;;;;;;;;23.33;58.81;101019.59;5077387;28;1146;-19
2023/07/16 05:39:56;;;;;;;;;;;;;;;24.90;52.67;101023.75;5077365;28;1105;-18
2023/07/16 05:42:21;;;;;;;;;;;;;;;22.23;58.80;101020.97;5077714;28;1093;-18
2023/07/16 05:44:47;;;;;;;;;;;;;;;24.64;54.32;101024.56;5070186;28;1968;-18
2023/07/16 05:47:12;;;;;;;;;;;;;;;23.16;56.29;101026.59;5060718;28;1168;-19
2023/07/16 05:49:38;;;;;;;;;;;;;;;22.25;62.96;101031.53;5071226;28;1139;-18
2023/07/16 05:52:04;;;;;;;;;;;;;;;25.31;51.74;101031.13;5068307;28;1123;-18
2023/07/16 05:54:29;;;;;;;;;;;;;;;22.56;57.15;101031.31;5076251;28;1129;-18
2023/07/16 05:56:55;;;;;;;;;;;;;;;23.10;58.89;101030.75;5066957;28;1206;-18
2023/07/16 05:59:20;;;;;;;;;;;;;;;25.00;52.40;101028.16;5064495;28;1142;-18
2023/07/16 06:01:46;;;;;;;;;;;;;;;22.23;60.64;101028.16;5072516;28;1082;-18
2023/07/16 06:04:11;;;;;;;;;;;;;;;24.49;54.54;101026.19;5072570;28;1119;-18
2023/07/16 06:06:37;;;;;;;;;;;;;;;22.90;57.58;101023.75;5075183;28;1922;-18
2023/07/16 06:09:02;;;;;;;;;;;;;;;22.38;63.22;101028.53;5077043;28;1023;-19
2023/07/16 06:11:28;;;;;;;;;;;;;;;24.72;54.24;101025.63;5074183;28;1114;-18
2023/07/16 06:13:54;;;;;;;;;;;;;;;22.63;57.32;101020.91;5075839;28;1048;-18
2023/07/16 06:16:20;;;;;;;;;;;;;;;22.49;61.86;101017.66;5065663;28;1042;-18
2023/07/16 06:18:45;;;;;;;;;;;;;;;24.90;53.19;101022.84;5076120;28;1155;-19
2023/07/16 06:21:11;;;;;;;;;;;;;;;22.81;56.93;101015.59;5063915;28;1206;-18
2023/07/16 06:23:37;;;;;;;;;;;;;;;23.18;59.60;101013.03;5059713;28;1261;-18
2023/07/16 06:26:03;;;;;;;;;;;;;;;25.28;52.14;101018.00;5074736;28;1989;-18
2023/07/16 06:28:28;;;;;;;;;;;;;;;22.67;56.95;101008.88;5064044;28;1011;-18
2023/07/16 06:30:54;;;;;;;;;;;;;;;22.84;60.33;101014.47;5077146;28;1008;-18
2023/07/16 06:33:19;;;;;;;;;;;;;;;25.08;52.47;101012.03;5076815;28;1288;-18
2023/07/16 06:35:46;;;;;;;;;;;;;;;22.91;56.09;101010.19;5063728;28;1198;-19
2023/07/16 06:38:11;;;;;;;;;;;;;;;22.48;61.27;101015.13;5076091;28;1114;-19
2023/07/16 06:40:37;;;;;;;;;;;;;;;25.10;51.95;101022.63;5075106;28;999;-18
2023/07/16 06:43:02;;;;;;;;;;;;;;;22.90;56.04;101015.72;5057338;28;1119;-19
2023/07/16 06:45:28;;;;;;;;;;;;;;;22.71;55.32;101018.31;5067795;28;1906;-19
2023/07/16 06:47:53;;;;;;;;;;;;;;;22.61;53.97;101014.81;5062842;28;1293;-19
2023/07/16 06:50:19;;;;;;;;;;;;;;;24.76;50.25;101024.28;5057782;28;1054;-19
2023/07/16 06:52:44;;;;;;;;;;;;;;;23.08;52.76;101016.63;5055535;28;1186;-19
2023/07/16 06:55:09;;;;;;;;;;;;;;;22.83;53.12;101016.31;5061803;28;1297;-19
2023/07/16 06:57:35;;;;;;;;;;;;;;;22.46;55.60;101023.31;5065112;28;1312;-19
2023/07/16 07:00:00;;;;;;;;;;;;;;;24.67;50.24;101021.56;5056237;28;1367;-19
2023/07/16 07:02:26;;;;;;;;;;;;;;;23.55;51.73;101012.13;5057011;28;1098;-19
2023/07/16 07:04:51;;;;;;;;;;;;;;;22.77;53.21;101016.91;5056714;28;1909;-19
2023/07/16 07:07:17;;;;;;;;;;;;;;;23.70;53.89;101014.28;5046569;28;1424;-19
2023/07/16 07:09:42;;;;;;;;;;;;;;;25.31;48.93;101020.34;5072843;28;1328;-19
2023/07/16 07:12:08;;;;;;;;;;;;;;;23.26;52.61;101017.63;5074259;28;1406;-19
2023/07/16 07:14:34;;;;;;;;;;;;;;;23.05;53.25;101011.56;5069995;28;1253;-20
2023/07/16 07:16:59;;;;;;;;;;;;;;;22.47;54.13;101021.47;5076574;28;1375;-19
2023/07/16 07:19:25;;;;;;;;;;;;;;;24.66;50.33;101019.88;5074786;28;1293;-19
2023/07/16 07:21:50;;;;;;;;;;;;;;;24.12;50.73;101020.00;5073903;28;1402;-19
2023/07/16 07:24:16;;;;;;;;;;;;;;;22.82;53.66;101017.28;5074173;28;1289;-19
2023/07/16 07:26:41;;;;;;;;;;;;;;;22.46;54.24;101020.63;5068138;28;1987;-19
2023/07/16 07:29:07;;;;;;;;;;;;;;;24.32;51.59;101018.84;5056112;28;1396;-19
2023/07/16 07:31:33;;;;;;;;;;;;;;;24.06;51.04;101011.56;5056253;28;1059;-19
2023/07/16 07:33:59;;;;;;;;;;;;;;;22.87;54.22;101023.06;5056289;28;1204;-19
2023/07/16 07:36:24;;;;;;;;;;;;;;;22.30;54.73;101018.56;5065596;28;1193;-19
2023/07/16 07:38:50;;;;;;;;;;;;;;;23.28;54.27;101024.56;5069916;28;1035;-19
2023/07/16 07:41:15;;;;;;;;;;;;;;;24.46;50.95;101025.50;5076066;28;1055;-19
2023/07/16 07:43:41;;;;;;;;;;;;;;;22.21;55.13;101022.94;5064530;28;1142;-18
2023/07/16 07:46:06;;;;;;;;;;;;;;;23.23;54.90;101027.69;5063214;28;1969;-19
2023/07/16 07:48:32;;;;;;;;;;;;;;;24.81;50.81;101032.72;5062515;28;1130;-19
2023/07/16 07:50:57;;;;;;;;;;;;;;;22.21;55.34;101027.44;5063656;28;1107;-19
2023/07/16 07:53:23;;;;;;;;;;;;;;;23.29;55.04;101020.88;5069905;28;1081;-19
2023/07/16 07:55:48;;;;;;;;;;;;;;;24.73;50.47;101017.41;5055929;28;1039;-19
2023/07/16 07:58:14;;;;;;;;;;;;;;;22.17;55.77;101023.38;5071174;28;1147;-18
2023/07/16 08:00:39;;;;;;;;;;;;;;;23.28;55.36;101024.56;5055298;28;1359;-19
2023/07/16 08:03:05;;;;;;;;;;;;;;;24.80;50.77;101025.69;5060792;28;1403;-19
2023/07/16 08:05:31;;;;;;;;;;;;;;;22.23;55.50;101022.78;5062666;28;1910;-19
2023/07/16 08:07:56;;;;;;;;;;;;;;;23.38;54.98;101019.13;5071073;28;1099;-19
2023/07/16 08:10:22;;;;;;;;;;;;;;;24.82;51.06;101026.38;5061257;28;1071;-19
2023/07/16 08:12:47;;;;;;;;;;;;;;;22.16;55.60;101030.56;5079164;28;1181;-19
2023/07/16 08:15:16;;;;;;;;;;;;;;;22.31;60.12;101030.97;5060692;28;1237;-19
2023/07/16 08:17:41;;;;;;;;;;;;;;;25.06;49.73;101033.72;5078850;28;1012;-19
2023/07/16 08:20:07;;;;;;;;;;;;;;;22.27;55.50;101034.94;5076204;28;1249;-19
2023/07/16 08:22:33;;;;;;;;;;;;;;;22.89;57.29;101024.78;5079771;28;1038;-19
2023/07/16 08:24:58;;;;;;;;;;;;;;;24.96;50.90;101029.50;5078575;28;1967;-19
2023/07/16 08:27:24;;;;;;;;;;;;;;;22.29;55.78;101032.91;5078698;28;895;-19
2023/07/16 08:29:49;;;;;;;;;;;;;;;22.75;57.34;101029.63;5066358;28;1066;-19
2023/07/16 08:32:15;;;;;;;;;;;;;;;25.31;49.09;101028.44;5079241;28;1027;-19
2023/07/16 08:34:40;;;;;;;;;;;;;;;22.43;55.46;101025.44;5068027;28;1072;-19
2023/07/16 08:37:06;;;;;;;;;;;;;;;21.93;58.83;101028.16;5079360;28;1156;-19
2023/07/16 08:39:32;;;;;;;;;;;;;;;24.81;50.50;101030.91;5076315;28;1137;-19
2023/07/16 08:41:57;;;;;;;;;;;;;;;22.89;54.16;101030.97;5079119;28;1545;-19
2023/07/16 08:44:23;;;;;;;;;;;;;;;22.08;60.47;101031.28;5068619;28;1067;-19
2023/07/16 08:46:48;;;;;;;;;;;;;;;25.10;50.15;101030.72;5070317;28;1972;-19
2023/07/16 08:49:14;;;;;;;;;;;;;;;22.71;54.97;101034.41;5060986;28;1115;-19
2023/07/16 08:51:39;;;;;;;;;;;;;;;21.88;56.88;101025.91;5060888;28;1035;-19
2023/07/16 08:54:05;;;;;;;;;;;;;;;24.43;52.08;101030.34;5060966;28;1111;-19
2023/07/16 08:56:30;;;;;;;;;;;;;;;23.11;54.28;101024.38;5061020;28;1229;-19
2023/07/16 08:58:56;;;;;;;;;;;;;;;21.90;57.30;101029.28;5057676;28;1198;-18
2023/07/16 09:01:21;;;;;;;;;;;;;;;24.69;51.36;101035.69;5047555;28;1149;-19
2023/07/16 09:03:47;;;;;;;;;;;;;;;23.19;54.34;101036.22;5065356;28;1156;-19
2023/07/16 09:06:12;;;;;;;;;;;;;;;21.96;56.54;101025.22;5066632;28;1965;-19
2023/07/16 09:08:38;;;;;;;;;;;;;;;24.02;53.11;101029.00;5057844;28;1166;-19
2023/07/16 09:11:03;;;;;;;;;;;;;;;23.82;52.68;101022.97;5076197;28;1122;-18
2023/07/16 09:13:29;;;;;;;;;;;;;;;22.09;56.11;101024.91;5076878;28;1261;-19
2023/07/16 09:15:55;;;;;;;;;;;;;;;23.40;55.57;101021.69;5057585;28;1030;-19
2023/07/16 09:18:21;;;;;;;;;;;;;;;24.40;51.62;101020.75;5069987;28;1063;-19
2023/07/16 09:20:47;;;;;;;;;;;;;;;22.07;56.00;101023.38;5063104;28;1071;-19
2023/07/16 09:23:13;;;;;;;;;;;;;;;23.33;55.00;101030.34;5078147;28;1201;-18
2023/07/16 09:25:40;;;;;;;;;;;;;;;24.75;51.34;101031.53;5062812;28;1975;-19
2023/07/16 09:28:05;;;;;;;;;;;;;;;22.16;55.95;101030.56;5059487;28;881;-19
2023/07/16 09:30:33;;;;;;;;;;;;;;;21.82;56.80;101037.16;5064388;28;1151;-19
2023/07/16 09:32:58;;;;;;;;;;;;;;;24.52;51.14;101028.56;5077923;28;1179;-19
2023/07/16 09:35:24;;;;;;;;;;;;;;;23.08;53.39;101029.19;5060033;28;1218;-19
2023/07/16 09:37:51;;;;;;;;;;;;;;;22.02;55.61;101030.00;5077969;28;1056;-19
2023/07/16 09:40:16;;;;;;;;;;;;;;;23.66;54.16;101029.84;5059239;28;1190;-19
2023/07/16 09:42:42;;;;;;;;;;;;;;;24.21;51.33;101022.63;5077589;28;1190;-19
2023/07/16 09:45:17;;;;;;;;;;;;;;;22.29;55.21;101029.41;5077454;28;1950;-18
2023/07/16 09:47:42;;;;;;;;;;;;;;;21.92;60.05;101029.13;5078241;28;1044;-19
2023/07/16 09:50:08;;;;;;;;;;;;;;;24.93;49.96;101023.41;5077798;28;1162;-19
2023/07/16 09:52:34;;;;;;;;;;;;;;;22.83;54.21;101010.94;5054610;28;1297;-19
2023/07/16 09:55:00;;;;;;;;;;;;;;;21.87;56.34;101018.84;5077958;28;1197;-19
2023/07/16 09:57:26;;;;;;;;;;;;;;;23.22;55.09;101011.75;5071939;28;1101;-19
2023/07/16 09:59:52;;;;;;;;;;;;;;;24.55;51.16;101020.16;5052084;28;1201;-19
2023/07/16 10:02:18;;;;;;;;;;;;;;;22.11;55.50;101022.09;5064230;28;1109;-19
2023/07/16 10:04:43;;;;;;;;;;;;;;;22.76;57.68;101017.88;5076610;28;1902;-18
2023/07/16 10:07:22;;;;;;;;;;;;;;;25.02;49.88;101004.63;5070268;28;1167;-18
2023/07/16 10:09:51;;;;;;;;;;;;;;;22.14;55.84;101014.63;5057618;28;1104;-19
2023/07/16 10:12:20;;;;;;;;;;;;;;;22.19;60.40;101016.88;5059764;28;1189;-19
2023/07/16 10:14:49;;;;;;;;;;;;;;;25.07;49.99;101011.19;5068780;28;1284;-19
2023/07/16 10:17:16;;;;;;;;;;;;;;;22.33;55.19;101022.78;5057658;28;952;-18
2023/07/16 10:19:47;;;;;;;;;;;;;;;21.88;59.11;101017.88;5068124;28;1031;-18
2023/07/16 10:22:12;;;;;;;;;;;;;;;24.78;50.39;101020.47;5063948;28;1066;-18
2023/07/16 10:24:41;;;;;;;;;;;;;;;22.63;54.32;101019.06;5076642;28;1977;-18
2023/07/16 10:27:06;;;;;;;;;;;;;;;21.93;58.98;101024.63;5077237;28;1095;-18
2023/07/16 10:29:32;;;;;;;;;;;;;;;24.79;50.63;101019.44;5076658;28;980;-18
2023/07/16 10:32:00;;;;;;;;;;;;;;;22.82;54.44;101017.28;5069152;28;1043;-18
2023/07/16 10:34:26;;;;;;;;;;;;;;;21.99;56.28;101021.38;5041604;28;1072;-18
2023/07/16 10:36:51;;;;;;;;;;;;;;;24.25;52.63;101023.16;5067986;28;1146;-18
2023/07/16 10:39:17;;;;;;;;;;;;;;;23.17;53.64;101024.78;5072959;28;1055;-18
2023/07/16 10:41:42;;;;;;;;;;;;;;;22.05;55.95;101009.28;5066434;28;884;-18
2023/07/16 10:44:08;;;;;;;;;;;;;;;23.65;54.61;101019.25;5074502;28;1142;-19
2023/07/16 10:46:34;;;;;;;;;;;;;;;24.25;51.68;101012.41;5066633;28;1906;-19
2023/07/16 10:48:59;;;;;;;;;;;;;;;22.29;55.34;101018.69;5058385;28;1106;-18
2023/07/16 10:51:26;;;;;;;;;;;;;;;22.07;60.27;101013.47;5077292;28;1114;-18
2023/07/16 10:53:51;;;;;;;;;;;;;;;24.65;51.13;101017.34;5070147;28;1055;-18
2023/07/16 10:56:17;;;;;;;;;;;;;;;22.66;54.17;101014.38;5066529;28;1167;-19
2023/07/16 10:58:43;;;;;;;;;;;;;;;21.92;56.42;101015.75;5054671;28;1567;-19
2023/07/16 11:01:09;;;;;;;;;;;;;;;24.17;52.51;101010.50;5067390;28;1170;-18
2023/07/16 11:03:34;;;;;;;;;;;;;;;23.11;53.54;101010.09;5069583;28;1033;-18
2023/07/16 11:06:05;;;;;;;;;;;;;;;22.00;55.88;101012.38;5072491;28;1910;-18
2023/07/16 11:08:30;;;;;;;;;;;;;;;23.72;53.69;101004.25;5073488;28;1014;-18
2023/07/16 11:10:56;;;;;;;;;;;;;;;23.72;52.14;100998.88;5061968;28;1159;-18
2023/07/16 11:13:25;;;;;;;;;;;;;;;22.29;54.85;101010.66;5072680;28;1198;-18
2023/07/16 11:15:50;;;;;;;;;;;;;;;23.58;54.17;101009.13;5073887;28;1170;-18
2023/07/16 11:18:16;;;;;;;;;;;;;;;24.08;51.78;100997.97;5072682;28;995;-18
2023/07/16 11:20:41;;;;;;;;;;;;;;;22.16;55.61;100998.41;5076338;28;1150;-18
2023/07/16 11:23:07;;;;;;;;;;;;;;;22.08;61.31;101004.47;5062553;28;1224;-18
2023/07/16 11:25:32;;;;;;;;;;;;;;;24.89;50.36;101003.16;5057826;28;1906;-18
2023/07/16 11:27:58;;;;;;;;;;;;;;;22.45;55.10;101004.69;5075866;28;1047;-19
2023/07/16 11:30:24;;;;;;;;;;;;;;;22.01;55.85;101014.06;5075771;28;1268;-19
2023/07/16 11:32:49;;;;;;;;;;;;;;;24.02;52.64;101012.91;5062476;28;1284;-19
2023/07/16 11:35:15;;;;;;;;;;;;;;;23.59;51.97;101009.97;5072495;28;1111;-18
2023/07/16 11:37:41;;;;;;;;;;;;;;;22.11;55.52;101009.53;5071914;28;1143;-19
2023/07/16 11:40:07;;;;;;;;;;;;;;;24.71;49.52;101008.63;5064510;28;1313;-18
2023/07/16 11:42:33;;;;;;;;;;;;;;;25.95;46.52;101010.03;5064696;28;1305;-19
2023/07/16 11:44:59;;;;;;;;;;;;;;;26.62;44.58;101008.09;5070032;28;1918;-19
2023/07/16 11:47:25;;;;;;;;;;;;;;;26.84;44.29;101013.72;5055783;28;1329;-18
2023/07/16 11:49:51;;;;;;;;;;;;;;;26.97;43.82;101010.50;5055768;28;1376;-19
2023/07/16 11:52:26;;;;;;;;;;;;;;;26.89;44.00;101002.44;5065005;28;1364;-18
2023/07/16 11:54:52;;;;;;;;;;;;;;;27.11;43.81;101008.09;5058185;28;1308;-18
2023/07/16 11:57:17;;;;;;;;;;;;;;;27.55;42.48;100998.53;5055826;28;1281;-19
2023/07/16 11:59:43;;;;;;;;;;;;;;;27.72;42.12;101007.41;5055951;28;1289;-18
2023/07/16 12:02:08;;;;;;;;;;;;;;;27.89;41.39;100998.31;5062304;28;1297;-18
2023/07/16 12:04:34;;;;;;;;;;;;;;;27.91;41.56;101002.50;5052978;28;1241;-19
2023/07/16 12:06:59;;;;;;;;;;;;;;;27.94;41.35;101004.00;5055746;28;1906;-18
2023/07/16 12:09:25;;;;;;;;;;;;;;;28.07;41.05;101006.94;5056172;28;1297;-18
2023/07/16 12:11:50;;;;;;;;;;;;;;;28.12;41.00;101011.78;5073294;28;1080;-18
2023/07/16 12:14:16;;;;;;;;;;;;;;;28.15;41.03;101003.31;5076436;28;1300;-18
2023/07/16 12:16:41;;;;;;;;;;;;;;;28.13;40.65;101007.22;5070104;28;1249;-19
2023/07/16 12:19:08;;;;;;;;;;;;;;;28.15;41.05;101005.16;5055707;28;1368;-19
2023/07/16 12:21:33;;;;;;;;;;;;;;;28.07;41.04;100997.97;5057883;28;1328;-19
2023/07/16 12:23:59;;;;;;;;;;;;;;;28.13;40.72;100994.53;5075430;28;1205;-18
2023/07/16 12:26:24;;;;;;;;;;;;;;;28.18;41.18;100996.69;5075475;28;1969;-18
2023/07/16 12:28:50;;;;;;;;;;;;;;;28.09;41.25;100998.66;5066903;28;1122;-19
2023/07/16 12:31:16;;;;;;;;;;;;;;;28.09;40.76;101006.75;5070521;28;1130;-18
2023/07/16 12:33:42;;;;;;;;;;;;;;;28.23;40.69;101008.63;5075417;28;1080;-19
2023/07/16 12:36:08;;;;;;;;;;;;;;;28.27;40.05;101010.97;5072005;28;1074;-19
2023/07/16 12:38:33;;;;;;;;;;;;;;;28.25;40.50;101005.75;5065108;28;1135;-18
2023/07/16 12:40:59;;;;;;;;;;;;;;;28.33;40.16;101015.66;5062341;28;1149;-18